Terminal Aerodrome Forecast
Issued by NWS

Home | Current Version | Previous Version | Text Only | Print | Product List | Glossary On
Versions: 1 2 3 4 5 6 7 8 9 10 11 12 13 14 15
000
FTUS46 KSGX 300520
TAFONT
TAF
KONT 300520Z 3006/3112 VRB05KT P6SM VCTS SCT100CB
     FM301700 25010G15KT P6SM SCT100
     FM302200 25010G20KT P6SM VCTS SCT040 SCT100CB
     FM310300 VRB05KT P6SM SCT040 SCT100=

USA.gov is the U.S. government's official web portal to all federal, state and local government web resources and services.